Time;durP1;ratioP1;P1;durP2;ratioP2;P2;SDS_P1;SDS_P2;PMS_P1;PMS_P2;Temp;Humidity;BMP_temperature;BMP_pressure;BME280_temperature;BME280_humidity;BME280_pressure;Samples;Min_cycle;Max_cycle;Signal;HPM_P1;HPM_P2
2022/05/06 00:02:09;;;;;;;50.15;28.90;;;;;;;12.58;74.66;102464.13;5044412;28;20021;-79
2022/05/06 00:04:34;;;;;;;50.30;30.08;;;;;;;12.55;74.55;102459.66;5043995;28;20025;-79
2022/05/06 00:07:00;;;;;;;49.83;29.48;;;;;;;12.53;74.78;102461.31;5043301;28;20109;-79
2022/05/06 00:09:25;;;;;;;53.25;31.25;;;;;;;12.49;75.43;102464.63;5027498;28;20029;-79
2022/05/06 00:11:54;;;;;;;50.85;28.83;;;;;;;12.46;75.17;102464.50;5024240;28;20053;-79
2022/05/06 00:14:20;;;;;;;51.40;29.73;;;;;;;12.43;75.67;102464.38;5039731;28;20046;-78
2022/05/06 00:16:45;;;;;;;54.05;29.42;;;;;;;12.41;75.34;102458.19;5032998;28;20290;-78
2022/05/06 00:19:10;;;;;;;52.75;29.50;;;;;;;12.39;75.13;102467.69;5043887;28;20061;-79
2022/05/06 00:21:36;;;;;;;53.53;28.95;;;;;;;12.37;75.04;102469.31;5044107;28;20052;-78
2022/05/06 00:24:04;;;;;;;47.50;27.35;;;;;;;12.32;74.83;102475.25;5043968;28;20036;-79
2022/05/06 00:26:30;;;;;;;47.92;28.40;;;;;;;12.27;75.19;102473.28;5041549;28;20032;-78
2022/05/06 00:28:55;;;;;;;46.60;27.42;;;;;;;12.26;75.01;102466.28;5043958;28;20049;-78
2022/05/06 00:31:20;;;;;;;47.67;28.73;;;;;;;12.21;75.08;102468.69;5043595;28;20029;-79
2022/05/06 00:33:47;;;;;;;47.80;28.65;;;;;;;12.19;75.71;102472.94;5043685;28;20096;-79
2022/05/06 00:36:12;;;;;;;49.05;28.17;;;;;;;12.13;75.46;102460.50;5042110;28;20021;-79
2022/05/06 00:38:38;;;;;;;52.78;28.73;;;;;;;12.04;75.46;102467.94;5033302;28;20029;-79
2022/05/06 00:41:03;;;;;;;46.65;27.33;;;;;;;12.03;75.08;102473.13;5041239;28;20021;-78
2022/05/06 00:43:28;;;;;;;48.30;27.40;;;;;;;11.98;75.01;102471.19;5043442;28;20029;-78
2022/05/06 00:45:55;;;;;;;46.58;27.40;;;;;;;11.98;75.04;102473.81;5040424;28;20069;-79
2022/05/06 00:48:27;;;;;;;49.40;27.63;;;;;;;11.97;75.17;102479.84;5033229;28;20040;-78
2022/05/06 00:50:56;;;;;;;49.28;27.77;;;;;;;11.94;75.58;102469.25;5043340;28;20038;-78
2022/05/06 00:53:21;;;;;;;43.92;26.13;;;;;;;11.93;75.65;102472.69;5048845;28;20032;-79
2022/05/06 00:55:47;;;;;;;49.88;27.83;;;;;;;11.89;75.82;102465.53;5040983;28;20052;-79
2022/05/06 00:58:13;;;;;;;46.40;26.90;;;;;;;11.89;75.85;102469.84;5031747;28;20269;-78
2022/05/06 01:00:38;;;;;;;45.83;26.33;;;;;;;11.84;75.11;102459.19;5040862;28;20096;-78
2022/05/06 01:03:04;;;;;;;44.30;25.98;;;;;;;11.80;74.93;102468.63;5030513;28;20018;-79
2022/05/06 01:05:30;;;;;;;44.15;24.83;;;;;;;11.71;74.47;102475.16;5039439;28;20018;-79
2022/05/06 01:07:57;;;;;;;45.95;24.73;;;;;;;11.64;74.97;102477.50;5038925;28;20029;-83
2022/05/06 01:10:23;;;;;;;39.45;22.48;;;;;;;11.57;75.43;102483.25;5038675;28;20045;-83
2022/05/06 01:12:49;;;;;;;40.75;23.83;;;;;;;11.55;75.81;102479.66;5037246;28;20028;-83
2022/05/06 01:15:36;;;;;;;38.90;23.35;;;;;;;11.49;75.38;102477.66;5033989;28;20292;-83
2022/05/06 01:18:01;;;;;;;39.88;22.85;;;;;;;11.49;74.70;102484.63;5033233;28;20069;-83
2022/05/06 01:20:27;;;;;;;36.08;21.95;;;;;;;11.42;75.00;102479.94;5053387;28;20087;-83
2022/05/06 01:22:56;;;;;;;35.28;20.90;;;;;;;11.37;74.89;102478.81;5053989;28;20268;-83
2022/05/06 01:25:22;;;;;;;34.95;22.55;;;;;;;11.35;75.18;102477.84;5042905;28;20093;-83
2022/05/06 01:27:55;;;;;;;42.83;24.13;;;;;;;11.29;75.50;102474.13;5038326;28;20037;-83
2022/05/06 01:30:36;;;;;;;40.55;24.80;;;;;;;11.29;75.28;102489.78;5058440;28;20124;-83
2022/05/06 01:33:04;;;;;;;41.00;24.73;;;;;;;11.29;75.38;102486.28;5043145;28;20025;-83
2022/05/06 01:35:30;;;;;;;41.65;25.20;;;;;;;11.27;75.15;102478.38;5058199;28;20017;-83
2022/05/06 01:38:00;;;;;;;41.65;24.27;;;;;;;11.24;75.10;102478.25;5030285;28;20085;-83
2022/05/06 01:40:27;;;;;;;45.53;26.45;;;;;;;11.21;75.27;102480.72;5026019;28;20303;-83
2022/05/06 01:42:56;;;;;;;41.15;24.20;;;;;;;11.18;75.91;102477.97;5042765;28;20100;-83
2022/05/06 01:45:23;;;;;;;39.33;24.38;;;;;;;11.19;75.80;102484.94;5054174;28;20033;-83
2022/05/06 01:47:51;;;;;;;37.80;23.15;;;;;;;11.15;76.37;102483.00;5040095;28;20276;-83
2022/05/06 01:50:17;;;;;;;40.53;23.88;;;;;;;11.18;76.18;102485.78;5042613;28;20060;-83
2022/05/06 01:52:44;;;;;;;39.42;24.80;;;;;;;11.18;76.73;102483.19;5058178;28;20033;-83
2022/05/06 01:55:12;;;;;;;42.17;24.70;;;;;;;11.18;77.37;102480.56;5042340;28;20093;-82
2022/05/06 01:57:37;;;;;;;47.75;26.02;;;;;;;11.20;77.20;102484.13;5041186;28;20228;-82
2022/05/06 02:00:05;;;;;;;51.65;27.58;;;;;;;11.21;77.83;102483.31;5057929;28;20143;-83
2022/05/06 02:02:30;;;;;;;54.85;28.98;;;;;;;11.24;78.60;102482.56;5045921;28;20038;-83
2022/05/06 02:07:40;;;;;;;50.42;28.08;;;;;;;11.30;78.96;102481.13;5042488;28;20032;-82
2022/05/06 02:10:05;;;;;;;50.53;29.60;;;;;;;11.32;78.93;102489.03;5042216;28;20026;-82
2022/05/06 02:12:30;;;;;;;50.08;29.38;;;;;;;11.31;79.24;102479.41;5042205;28;20033;-82
2022/05/06 02:14:56;;;;;;;53.05;29.65;;;;;;;11.30;79.37;102478.53;5029629;28;20022;-82
2022/05/06 02:17:21;;;;;;;49.40;28.35;;;;;;;11.30;79.29;102478.53;5031928;28;20061;-78
2022/05/06 02:19:47;;;;;;;49.58;28.33;;;;;;;11.31;79.28;102480.31;5032003;28;20256;-78
2022/05/06 02:22:12;;;;;;;52.38;29.92;;;;;;;11.31;79.64;102480.31;5036111;28;20266;-78
2022/05/06 02:24:38;;;;;;;49.88;29.20;;;;;;;11.29;79.83;102481.94;5047373;28;20136;-78
2022/05/06 02:27:03;;;;;;;45.60;27.30;;;;;;;11.31;80.02;102482.03;5029619;28;20029;-78
2022/05/06 02:29:29;;;;;;;46.78;28.55;;;;;;;11.31;80.10;102484.63;5042422;28;20330;-78
2022/05/06 02:34:38;;;;;;;46.85;28.30;;;;;;;11.35;79.93;102490.91;5045209;28;20053;-78
2022/05/06 02:37:03;;;;;;;46.03;27.95;;;;;;;11.34;79.90;102483.88;5045957;28;20025;-78
2022/05/06 02:39:29;;;;;;;49.97;27.77;;;;;;;11.34;79.97;102489.09;5045976;28;20260;-78
2022/05/06 02:41:55;;;;;;;44.92;26.90;;;;;;;11.34;80.05;102486.50;5045910;28;20053;-78
2022/05/06 02:44:21;;;;;;;40.05;24.65;;;;;;;11.32;79.68;102486.44;5054271;28;20183;-78
2022/05/06 02:46:46;;;;;;;36.78;22.77;;;;;;;11.34;79.05;102489.09;5042320;28;20288;-82
2022/05/06 02:49:11;;;;;;;38.63;23.50;;;;;;;11.35;79.32;102493.50;5039899;28;20047;-82
2022/05/06 02:51:37;;;;;;;35.08;21.70;;;;;;;11.33;79.07;102497.78;5039764;28;20041;-81
2022/05/06 02:54:02;;;;;;;37.45;22.08;;;;;;;11.28;79.27;102500.16;5034786;28;20029;-82
2022/05/06 02:56:27;;;;;;;35.40;21.90;;;;;;;11.26;79.22;102500.06;5029054;28;20025;-82
2022/05/06 02:58:53;;;;;;;36.38;22.08;;;;;;;11.22;79.42;102500.75;5045296;28;20093;-81
2022/05/06 03:01:18;;;;;;;37.45;22.40;;;;;;;11.16;79.87;102497.84;5040736;28;20026;-82
2022/05/06 03:03:44;;;;;;;39.17;22.42;;;;;;;11.14;79.93;102491.69;5044336;28;20029;-82
2022/05/06 03:06:09;;;;;;;35.22;22.20;;;;;;;11.11;80.25;102499.38;5039542;28;20349;-82
2022/05/06 03:08:35;;;;;;;33.78;20.65;;;;;;;11.12;80.18;102493.31;5045506;28;20045;-82
2022/05/06 03:11:01;;;;;;;35.72;21.27;;;;;;;11.14;80.23;102496.91;5045377;28;20052;-82
2022/05/06 03:13:26;;;;;;;34.58;20.40;;;;;;;11.15;79.98;102496.06;5045293;28;20149;-82
2022/05/06 03:15:52;;;;;;;34.72;20.77;;;;;;;11.13;80.17;102492.50;5043823;28;20033;-82
2022/05/06 03:18:17;;;;;;;35.00;20.33;;;;;;;11.11;80.04;102488.94;5056313;28;20109;-82
2022/05/06 03:20:44;;;;;;;34.58;20.80;;;;;;;11.12;80.29;102488.09;5037083;28;20041;-82
2022/05/06 03:23:09;;;;;;;37.92;21.60;;;;;;;11.08;80.22;102481.84;5045179;28;20052;-82
2022/05/06 03:25:35;;;;;;;36.38;21.05;;;;;;;11.07;80.46;102487.00;5050817;28;20025;-82
2022/05/06 03:28:07;;;;;;;34.88;21.23;;;;;;;11.05;80.99;102489.53;5043505;28;20052;-82
2022/05/06 03:30:38;;;;;;;36.53;20.95;;;;;;;11.05;80.79;102486.00;5042699;28;20025;-82
2022/05/06 03:33:04;;;;;;;35.85;21.20;;;;;;;11.04;80.83;102484.25;5044735;28;20026;-82
2022/05/06 03:35:32;;;;;;;35.03;20.35;;;;;;;11.06;80.82;102491.28;5041406;28;20049;-81
2022/05/06 03:37:57;;;;;;;35.28;20.92;;;;;;;11.05;80.78;102486.00;5054583;28;20081;-81
2022/05/06 03:40:23;;;;;;;34.05;19.40;;;;;;;11.05;80.93;102488.63;5035444;28;20033;-82
2022/05/06 03:42:48;;;;;;;33.65;19.17;;;;;;;11.06;80.84;102493.03;5044863;28;20022;-82
2022/05/06 03:45:13;;;;;;;35.72;20.48;;;;;;;11.06;80.96;102495.63;5035728;28;20065;-82
2022/05/06 03:47:39;;;;;;;35.20;19.70;;;;;;;11.05;81.07;102492.13;5040752;28;20268;-82
2022/05/06 03:52:49;;;;;;;37.67;19.90;;;;;;;11.02;81.60;102483.25;5045083;28;20164;-82
2022/05/06 03:55:14;;;;;;;34.08;18.17;;;;;;;11.01;81.95;102486.66;5037565;28;20168;-81
2022/05/06 03:57:42;;;;;;;41.10;19.52;;;;;;;10.96;81.67;102489.06;5040612;28;20105;-82
2022/05/06 04:00:09;;;;;;;49.25;19.83;;;;;;;10.90;82.22;102497.47;5044327;28;20026;-82
2022/05/06 04:02:36;;;;;;;34.33;19.48;;;;;;;10.87;81.92;102492.13;5044623;28;20131;-82
2022/05/06 04:05:02;;;;;;;37.58;20.00;;;;;;;10.89;82.55;102494.78;5053803;28;20088;-82
2022/05/06 04:07:27;;;;;;;33.35;19.10;;;;;;;10.89;82.84;102495.72;5039181;28;20084;-82
2022/05/06 04:09:53;;;;;;;35.38;18.63;;;;;;;10.90;82.98;102500.09;5044224;28;20017;-82
2022/05/06 04:12:18;;;;;;;33.35;18.65;;;;;;;10.90;82.90;102494.88;5059334;28;20021;-82
2022/05/06 04:14:43;;;;;;;35.60;18.35;;;;;;;10.92;82.59;102501.06;5045314;28;20037;-82
2022/05/06 04:17:08;;;;;;;35.55;18.10;;;;;;;10.94;82.88;102501.16;5058542;28;20018;-78
2022/05/06 04:19:34;;;;;;;32.58;17.55;;;;;;;10.94;82.60;102502.03;5035211;28;20095;-78
2022/05/06 04:24:43;;;;;;;33.83;17.98;;;;;;;10.92;82.81;102501.06;5042212;28;20310;-78
2022/05/06 04:27:08;;;;;;;28.98;16.48;;;;;;;10.94;82.91;102502.03;5041506;28;20033;-78
2022/05/06 04:29:34;;;;;;;29.88;16.90;;;;;;;10.94;82.72;102503.75;5034928;28;20025;-78
2022/05/06 04:31:59;;;;;;;26.58;15.70;;;;;;;10.97;82.49;102503.91;5037758;28;20036;-78
2022/05/06 04:34:25;;;;;;;23.80;14.50;;;;;;;10.92;82.08;102510.59;5036808;28;20245;-78
2022/05/06 04:36:50;;;;;;;24.60;14.88;;;;;;;10.90;82.05;102501.81;5037553;28;20095;-78
2022/05/06 04:39:16;;;;;;;28.38;15.93;;;;;;;10.91;82.41;102512.31;5041963;28;20048;-78
2022/05/06 04:41:42;;;;;;;29.35;15.80;;;;;;;10.88;82.70;102506.97;5037868;28;20203;-78
2022/05/06 04:44:07;;;;;;;34.28;17.63;;;;;;;10.87;83.41;102507.75;5033833;28;20253;-77
2022/05/06 04:46:33;;;;;;;31.98;17.05;;;;;;;10.86;83.03;102510.28;5028488;28;20036;-78
2022/05/06 04:48:58;;;;;;;33.00;16.17;;;;;;;10.81;82.81;102517.03;5037346;28;20057;-77
2022/05/06 04:51:23;;;;;;;35.03;15.65;;;;;;;10.75;83.02;102517.59;5043385;28;20033;-78
2022/05/06 04:53:51;;;;;;;31.65;15.65;;;;;;;10.72;83.29;102520.94;5035246;28;20029;-78
2022/05/06 04:56:17;;;;;;;27.83;15.07;;;;;;;10.71;83.44;102526.09;5041925;28;20072;-78
2022/05/06 04:58:42;;;;;;;25.48;13.90;;;;;;;10.68;83.58;102520.72;5038046;28;20029;-78
2022/05/06 05:01:07;;;;;;;35.72;14.82;;;;;;;10.64;83.15;102531.81;5041234;28;20025;-78
2022/05/06 05:03:32;;;;;;;29.30;14.77;;;;;;;10.58;83.42;102525.44;5032643;28;20061;-78
2022/05/06 05:05:58;;;;;;;26.00;14.93;;;;;;;10.59;83.31;102531.59;5040080;28;20181;-78
2022/05/06 05:08:23;;;;;;;25.58;14.40;;;;;;;10.55;83.63;102535.72;5040260;28;20029;-78
2022/05/06 05:10:48;;;;;;;24.48;14.15;;;;;;;10.60;83.58;102535.94;5040337;28;20025;-78
2022/05/06 05:13:14;;;;;;;23.95;13.70;;;;;;;10.61;83.12;102545.56;5057404;28;20029;-78
2022/05/06 05:15:39;;;;;;;24.40;13.50;;;;;;;10.61;83.18;102550.78;5040562;28;20052;-78
2022/05/06 05:18:05;;;;;;;26.50;13.30;;;;;;;10.59;82.77;102545.50;5058538;28;20041;-78
2022/05/06 05:20:30;;;;;;;24.83;13.38;;;;;;;10.59;82.94;102552.44;5058318;28;20067;-78
2022/05/06 05:22:55;;;;;;;26.92;12.63;;;;;;;10.55;83.19;102550.47;5042409;28;20087;-78
2022/05/06 05:25:21;;;;;;;24.33;13.48;;;;;;;10.55;83.85;102556.56;5037903;28;20040;-78
2022/05/06 05:27:46;;;;;;;24.15;13.60;;;;;;;10.54;83.81;102554.81;5042140;28;20032;-78
2022/05/06 05:30:11;;;;;;;21.83;12.85;;;;;;;10.58;83.91;102551.53;5031410;28;20064;-78
2022/05/06 05:32:39;;;;;;;28.65;14.18;;;;;;;10.59;84.13;102552.44;5034564;28;20287;-78
2022/05/06 05:35:05;;;;;;;30.20;14.07;;;;;;;10.60;83.89;102552.50;5039585;28;20042;-78
2022/05/06 05:37:30;;;;;;;32.80;13.35;;;;;;;10.61;83.81;102553.41;5037246;28;20033;-78
2022/05/06 05:39:56;;;;;;;25.67;14.10;;;;;;;10.59;83.76;102553.31;5035178;28;20030;-78
2022/05/06 05:42:22;;;;;;;29.02;14.20;;;;;;;10.58;83.58;102559.34;5035078;28;20071;-78
2022/05/06 05:50:16;;;;;;;25.83;13.65;;;;;;;10.64;83.52;102561.38;5042390;28;20318;-78
2022/05/06 05:52:41;;;;;;;27.02;13.88;;;;;;;10.65;83.85;102559.69;5042496;28;20030;-78
2022/05/06 05:55:07;;;;;;;26.27;14.23;;;;;;;10.68;84.13;102565.03;5029500;28;20030;-78
2022/05/06 05:57:32;;;;;;;27.58;14.27;;;;;;;10.69;83.60;102558.97;5042338;28;20041;-78
2022/05/06 05:59:58;;;;;;;29.50;13.77;;;;;;;10.64;83.28;102565.69;5057845;28;20114;-78
2022/05/06 06:02:23;;;;;;;22.70;13.45;;;;;;;10.63;83.84;102561.28;5042187;28;20022;-78
2022/05/06 06:04:49;;;;;;;25.45;14.65;;;;;;;10.62;83.74;102557.81;5031558;28;20097;-78
2022/05/06 06:07:14;;;;;;;24.17;13.68;;;;;;;10.64;84.11;102560.47;5035548;28;20018;-78
2022/05/06 06:09:39;;;;;;;25.55;14.57;;;;;;;10.67;83.93;102548.47;5038159;28;20021;-78
2022/05/06 06:12:05;;;;;;;30.55;14.48;;;;;;;10.66;83.81;102554.53;5046155;28;20021;-78
2022/05/06 06:14:30;;;;;;;29.30;13.68;;;;;;;10.65;83.93;102557.94;5038626;28;20172;-78
2022/05/06 06:16:56;;;;;;;23.00;13.75;;;;;;;10.68;84.42;102549.41;5043770;28;20018;-78
2022/05/06 06:19:22;;;;;;;23.23;14.18;;;;;;;10.71;84.84;102553.03;5061003;28;20052;-78
2022/05/06 06:21:47;;;;;;;25.73;14.70;;;;;;;10.76;84.50;102550.66;5045338;28;20033;-78
2022/05/06 06:24:12;;;;;;;28.77;15.23;;;;;;;10.74;84.05;102549.69;5035281;28;20026;-78
2022/05/06 06:26:37;;;;;;;27.35;14.75;;;;;;;10.74;84.75;102552.31;5041740;28;20268;-78
2022/05/06 06:29:03;;;;;;;29.65;15.23;;;;;;;10.72;84.99;102552.22;5038989;28;20187;-78
2022/05/06 06:31:31;;;;;;;27.42;15.52;;;;;;;10.74;85.75;102547.09;5042683;28;20044;-78
2022/05/06 06:33:57;;;;;;;25.85;14.98;;;;;;;10.77;86.04;102549.84;5043172;28;20037;-78
2022/05/06 06:36:23;;;;;;;33.17;15.75;;;;;;;10.81;85.76;102543.97;5038482;28;20021;-78
2022/05/06 06:38:49;;;;;;;29.60;15.82;;;;;;;10.82;85.54;102551.00;5046183;28;20029;-78
2022/05/06 06:41:14;;;;;;;33.15;15.35;;;;;;;10.81;85.23;102543.97;5045979;28;20339;-78
2022/05/06 06:43:39;;;;;;;34.15;16.48;;;;;;;10.85;86.34;102551.13;5045776;28;20096;-78
2022/05/06 06:46:05;;;;;;;33.90;17.10;;;;;;;10.91;86.72;102545.34;5041112;28;20026;-79
2022/05/06 06:48:31;;;;;;;32.15;16.40;;;;;;;10.99;86.87;102548.31;5040182;28;20052;-83
2022/05/06 06:50:56;;;;;;;32.92;17.27;;;;;;;11.02;86.49;102557.19;5041553;28;20025;-82
2022/05/06 06:53:21;;;;;;;32.22;17.40;;;;;;;11.07;85.38;102558.31;5041140;28;20372;-82
2022/05/06 06:55:47;;;;;;;34.70;18.35;;;;;;;11.10;86.59;102562.78;5038943;28;20053;-83
2022/05/06 06:58:12;;;;;;;35.50;19.35;;;;;;;11.18;86.49;102556.25;5045954;28;20052;-83
2022/05/06 07:00:38;;;;;;;35.30;18.85;;;;;;;11.19;86.32;102563.22;5041667;28;20036;-81
2022/05/06 07:03:03;;;;;;;40.83;19.52;;;;;;;11.27;87.34;102571.44;5043396;28;20342;-82
2022/05/06 07:05:29;;;;;;;35.28;18.83;;;;;;;11.32;87.51;102575.16;5035827;28;20476;-83
2022/05/06 07:13:22;;;;;;;29.77;17.38;;;;;;;11.49;86.82;102581.19;5032006;28;20033;-83
2022/05/06 07:15:47;;;;;;;34.67;19.40;;;;;;;11.54;86.19;102586.63;5026877;28;20023;-83
2022/05/06 07:18:13;;;;;;;32.83;18.02;;;;;;;11.58;86.17;102584.22;5038930;28;20025;-78
2022/05/06 07:20:38;;;;;;;36.15;19.13;;;;;;;11.60;86.51;102585.22;5037835;28;20033;-78
2022/05/06 07:23:04;;;;;;;37.15;19.75;;;;;;;11.66;86.74;102588.09;5037322;28;20280;-79
2022/05/06 07:25:29;;;;;;;40.10;20.35;;;;;;;11.71;84.95;102590.94;5052832;28;20025;-78
2022/05/06 07:27:55;;;;;;;40.88;21.67;;;;;;;11.70;85.65;102583.91;5037289;28;20307;-78
2022/05/06 07:30:20;;;;;;;39.90;21.35;;;;;;;11.71;85.35;102597.88;5036953;28;20025;-79
2022/05/06 07:32:45;;;;;;;42.40;22.95;;;;;;;11.71;86.33;102600.50;5044779;28;20192;-78
2022/05/06 07:35:11;;;;;;;45.80;23.60;;;;;;;11.74;86.39;102608.47;5035304;28;20080;-78
2022/05/06 07:37:36;;;;;;;42.88;22.63;;;;;;;11.75;85.91;102602.44;5043230;28;20172;-79
2022/05/06 07:40:04;;;;;;;46.72;23.77;;;;;;;11.75;85.35;102612.88;5037352;28;20337;-78
2022/05/06 07:42:30;;;;;;;41.85;22.10;;;;;;;11.79;85.81;102613.09;5030957;28;20040;-79
2022/05/06 07:44:57;;;;;;;45.28;22.70;;;;;;;11.82;85.89;102621.06;5035362;28;20342;-78
2022/05/06 07:47:22;;;;;;;40.88;21.63;;;;;;;11.83;85.42;102614.13;5059977;28;20025;-78
2022/05/06 07:49:48;;;;;;;44.35;21.98;;;;;;;11.83;85.51;102621.94;5042141;28;20276;-78
2022/05/06 07:52:13;;;;;;;44.33;21.63;;;;;;;11.85;84.88;102628.16;5044577;28;20037;-78
2022/05/06 07:54:38;;;;;;;44.85;22.25;;;;;;;11.82;85.59;102622.78;5036112;28;20026;-78
2022/05/06 07:57:03;;;;;;;42.63;22.40;;;;;;;11.84;85.51;102618.53;5030043;28;20156;-81
2022/05/06 07:59:29;;;;;;;46.03;23.55;;;;;;;11.82;85.68;102620.19;5037343;28;20053;-82
2022/05/06 08:04:38;;;;;;;49.67;25.00;;;;;;;11.87;85.77;102623.00;5044487;28;20060;-81
2022/05/06 08:07:05;;;;;;;46.13;24.15;;;;;;;11.88;85.99;102619.56;5057760;28;20288;-81
2022/05/06 08:09:31;;;;;;;46.50;24.33;;;;;;;11.92;86.31;102632.84;5029902;28;20077;-82
2022/05/06 08:11:56;;;;;;;45.55;24.00;;;;;;;11.96;85.37;102626.06;5056634;28;20022;-82
2022/05/06 08:14:22;;;;;;;44.05;23.25;;;;;;;11.99;83.84;102629.72;5036176;28;20044;-82
2022/05/06 08:16:48;;;;;;;46.85;25.00;;;;;;;11.99;84.79;102634.97;5034529;28;20095;-83
2022/05/06 08:19:14;;;;;;;46.22;24.83;;;;;;;12.00;85.19;102625.38;5035320;28;20061;-82
2022/05/06 08:21:40;;;;;;;50.72;26.67;;;;;;;11.99;85.05;102634.03;5044889;28;20284;-82
2022/05/06 08:24:06;;;;;;;50.15;25.73;;;;;;;11.99;84.53;102634.97;5042824;28;20037;-82
2022/05/06 08:26:32;;;;;;;50.78;27.52;;;;;;;11.97;85.02;102630.47;5038145;28;20038;-74
2022/05/06 08:28:57;;;;;;;51.05;27.35;;;;;;;11.98;85.13;102633.16;5037206;28;20053;-74
2022/05/06 08:31:23;;;;;;;51.13;26.30;;;;;;;11.98;84.75;102624.44;5039269;28;20041;-74
2022/05/06 08:33:48;;;;;;;50.97;26.40;;;;;;;12.06;85.67;102624.78;5038659;28;20040;-74
2022/05/06 08:36:14;;;;;;;45.97;24.73;;;;;;;12.08;84.62;102624.03;5037470;28;20028;-74
2022/05/06 08:38:39;;;;;;;44.53;24.92;;;;;;;12.14;85.35;102624.31;5031973;28;20022;-74
2022/05/06 08:41:05;;;;;;;49.85;26.13;;;;;;;12.21;84.73;102614.13;5043560;28;20040;-74
2022/05/06 08:43:31;;;;;;;49.08;25.38;;;;;;;12.28;84.54;102617.13;5034027;28;20284;-74
2022/05/06 08:51:46;;;;;;;42.10;22.90;;;;;;;12.44;83.40;102607.31;5041459;28;20346;-74
2022/05/06 08:54:12;;;;;;;38.90;22.35;;;;;;;12.58;83.74;102595.75;5043166;28;20140;-74
2022/05/06 08:56:37;;;;;;;44.88;24.10;;;;;;;12.69;85.45;102610.19;5049381;28;20101;-74
2022/05/06 08:59:02;;;;;;;42.80;22.70;;;;;;;12.79;84.27;102600.09;5041012;28;20233;-74
2022/05/06 09:01:27;;;;;;;41.83;22.98;;;;;;;12.88;83.26;102598.78;5043412;28;20025;-74
2022/05/06 09:03:53;;;;;;;41.53;23.17;;;;;;;12.97;84.11;102595.66;5042789;28;20417;-74
2022/05/06 09:06:20;;;;;;;42.20;23.10;;;;;;;13.00;80.91;102594.91;5028921;28;20302;-74
2022/05/06 09:08:47;;;;;;;40.80;23.23;;;;;;;13.08;81.73;102597.81;5039625;28;20030;-74
2022/05/06 09:11:12;;;;;;;42.35;23.55;;;;;;;13.17;83.40;102596.50;5041770;28;20041;-75
2022/05/06 09:13:58;;;;;;;44.05;24.15;;;;;;;13.28;82.24;102596.03;5036808;28;20271;-74
2022/05/06 09:16:39;;;;;;;42.10;23.38;;;;;;;13.30;81.95;102595.28;5032481;28;20129;-74
2022/05/06 09:19:25;;;;;;;41.97;23.92;;;;;;;13.37;80.98;102601.69;5036516;28;20041;-74
2022/05/06 09:22:18;;;;;;;39.92;23.15;;;;;;;13.45;81.64;102594.13;5050540;28;20500;-74
2022/05/06 09:24:47;;;;;;;39.03;22.52;;;;;;;13.59;82.48;102595.56;5034905;28;20108;-74
2022/05/06 09:27:19;;;;;;;43.50;24.63;;;;;;;13.74;82.63;102590.03;5038492;28;20048;-74
2022/05/06 09:29:47;;;;;;;43.75;25.05;;;;;;;13.81;80.48;102593.78;5041912;28;20025;-74
2022/05/06 09:32:21;;;;;;;44.17;25.08;;;;;;;13.89;80.04;102589.75;5033412;28;20025;-74
2022/05/06 09:34:57;;;;;;;43.83;24.42;;;;;;;13.99;81.24;102591.88;5036958;28;20072;-74
2022/05/06 09:37:37;;;;;;;41.42;23.95;;;;;;;14.08;79.51;102586.97;5038408;28;20052;-76
2022/05/06 09:40:02;;;;;;;40.45;24.08;;;;;;;14.19;80.19;102586.47;5027488;28;20034;-75
2022/05/06 09:42:28;;;;;;;36.25;22.02;;;;;;;14.24;78.31;102579.69;5035720;28;20035;-75
2022/05/06 09:44:53;;;;;;;39.15;24.35;;;;;;;14.34;79.89;102576.56;5042535;28;20079;-76
2022/05/06 09:47:19;;;;;;;41.15;24.05;;;;;;;14.41;79.29;102572.41;5028969;28;20040;-76
2022/05/06 09:49:45;;;;;;;40.60;24.25;;;;;;;14.52;79.91;102567.53;5049406;28;20033;-76
2022/05/06 09:52:14;;;;;;;47.38;24.73;;;;;;;14.61;79.52;102575.72;5042397;28;20029;-76
2022/05/06 09:54:42;;;;;;;46.33;25.90;;;;;;;14.69;80.16;102569.06;5042648;28;20173;-75
2022/05/06 09:57:09;;;;;;;41.95;24.45;;;;;;;14.74;78.78;102575.38;5039523;28;20523;-76
2022/05/06 09:59:36;;;;;;;40.65;24.00;;;;;;;14.80;77.88;102576.41;5035267;28;20037;-76
2022/05/06 10:02:03;;;;;;;38.30;22.88;;;;;;;14.84;76.83;102573.03;5042444;28;20077;-76
2022/05/06 10:04:28;;;;;;;38.22;22.48;;;;;;;14.91;78.14;102568.03;5042525;28;20032;-75
2022/05/06 10:06:58;;;;;;;36.08;21.30;;;;;;;15.02;78.91;102580.63;5039704;28;20022;-74
2022/05/06 10:09:25;;;;;;;36.42;22.58;;;;;;;15.08;77.37;102579.09;5032423;28;20030;-74
2022/05/06 10:11:52;;;;;;;35.20;21.13;;;;;;;15.17;76.71;102575.88;5039397;28;20041;-74
2022/05/06 10:14:18;;;;;;;32.15;20.17;;;;;;;15.25;76.52;102569.16;5033720;28;20018;-74
2022/05/06 10:16:44;;;;;;;33.97;20.20;;;;;;;15.31;76.66;102563.22;5038286;28;20119;-74
2022/05/06 10:19:26;;;;;;;32.90;20.13;;;;;;;15.38;76.63;102557.31;5033803;28;20277;-74
2022/05/06 10:21:53;;;;;;;32.38;19.17;;;;;;;15.51;76.75;102558.59;5056160;28;20259;-74
2022/05/06 10:24:18;;;;;;;28.58;18.23;;;;;;;15.56;75.41;102556.09;5033992;28;20022;-74
2022/05/06 10:26:53;;;;;;;27.80;16.92;;;;;;;15.65;74.45;102556.34;5042357;28;20036;-74
2022/05/06 10:32:26;;;;;;;25.05;16.40;;;;;;;15.76;71.36;102556.69;5038272;28;20032;-74
2022/05/06 10:34:55;;;;;;;26.83;16.60;;;;;;;15.78;72.14;102549.75;5039331;28;20029;-74
2022/05/06 10:51:40;;;;;;;21.00;12.75;;;;;;;16.24;71.36;102526.53;5042069;28;20195;-74
2022/05/06 10:54:14;;;;;;;19.40;13.00;;;;;;;16.32;71.87;102527.59;5035121;28;20048;-74
2022/05/06 10:56:44;;;;;;;19.05;12.27;;;;;;;16.41;70.34;102521.69;5044331;28;20017;-74
2022/05/06 10:59:09;;;;;;;18.40;12.00;;;;;;;16.54;70.66;102523.81;5045752;28;20080;-74
2022/05/06 11:01:35;;;;;;;20.60;13.30;;;;;;;16.65;71.34;102527.59;5045603;28;20021;-74
2022/05/06 11:04:00;;;;;;;18.02;11.30;;;;;;;16.76;70.82;102516.47;5040269;28;20215;-74
2022/05/06 11:06:26;;;;;;;13.95;8.38;;;;;;;16.76;65.77;102525.25;5045182;28;20117;-75
2022/05/06 11:08:51;;;;;;;12.02;7.88;;;;;;;16.78;65.47;102522.66;5042315;28;20176;-75
2022/05/06 11:11:19;;;;;;;14.70;9.05;;;;;;;16.79;65.96;102513.91;5042227;28;20109;-76
2022/05/06 11:13:47;;;;;;;16.75;10.15;;;;;;;16.90;68.04;102516.84;5040111;28;20033;-76
2022/05/06 11:16:14;;;;;;;16.90;10.60;;;;;;;16.95;64.09;102515.22;5053875;28;20052;-75
2022/05/06 11:18:47;;;;;;;15.07;9.20;;;;;;;16.99;66.32;102517.06;5045389;28;20268;-75
2022/05/06 11:21:23;;;;;;;17.83;11.07;;;;;;;17.09;66.38;102513.81;5045280;28;20283;-75
2022/05/06 11:23:49;;;;;;;15.45;9.90;;;;;;;17.31;68.88;102511.66;5034588;28;20365;-79
2022/05/06 11:26:26;;;;;;;17.27;11.68;;;;;;;17.39;67.35;102507.44;5029440;28;20024;-78
2022/05/06 11:29:04;;;;;;;15.80;10.85;;;;;;;17.46;66.54;102514.63;5035344;28;20091;-78
2022/05/06 11:31:30;;;;;;;11.80;7.82;;;;;;;17.48;62.33;102510.28;5028859;28;20028;-78
2022/05/06 11:34:04;;;;;;;10.98;7.07;;;;;;;17.48;62.36;102505.00;5050860;28;20025;-78
2022/05/06 11:36:30;;;;;;;10.70;8.10;;;;;;;17.52;64.31;102496.31;5036063;28;20021;-78
2022/05/06 11:38:55;;;;;;;12.45;8.60;;;;;;;17.63;64.19;102495.66;5036257;28;20107;-79
2022/05/06 11:41:20;;;;;;;10.98;7.70;;;;;;;17.80;64.79;102495.97;5037854;28;20026;-78
2022/05/06 11:43:46;;;;;;;11.57;8.13;;;;;;;17.87;63.73;102498.78;5034844;28;20029;-79
2022/05/06 11:49:03;;;;;;;8.65;5.53;;;;;;;17.92;60.42;102490.13;5034973;28;20120;-78
2022/05/06 11:51:36;;;;;;;10.25;7.25;;;;;;;18.04;63.06;102488.56;5036861;28;20026;-79
2022/05/06 11:54:04;;;;;;;10.40;7.50;;;;;;;18.15;62.00;102483.53;5029914;28;20179;-78
2022/05/06 11:56:29;;;;;;;11.40;6.97;;;;;;;18.17;59.79;102476.50;5035189;28;20049;-81
2022/05/06 11:58:57;;;;;;;10.27;6.90;;;;;;;18.29;63.68;102474.97;5058642;28;20066;-79